Time;durP1;ratioP1;P1;durP2;ratioP2;P2;SDS_P1;SDS_P2;PMS_P1;PMS_P2;Temp;Humidity;BMP_temperature;BMP_pressure;BME280_temperature;BME280_humidity;BME280_pressure;Samples;Min_cycle;Max_cycle;Signal;HPM_P1;HPM_P2
2022/10/14 00:01:17;;;;;;;22.63;13.50;;;15.00;87.00;;;;;;4998312;28;20473;-77
2022/10/14 00:03:45;;;;;;;21.43;13.70;;;15.00;87.00;;;;;;4994894;28;20479;-79
2022/10/14 00:06:17;;;;;;;24.00;15.53;;;15.00;87.00;;;;;;5001350;28;20481;-77
2022/10/14 00:08:46;;;;;;;23.90;14.90;;;15.00;87.10;;;;;;4997394;28;20848;-78
2022/10/14 00:11:16;;;;;;;26.17;15.63;;;15.00;87.10;;;;;;4995956;28;20553;-79
2022/10/14 00:13:44;;;;;;;26.27;15.90;;;15.00;87.10;;;;;;5001755;28;20515;-78
2022/10/14 00:16:18;;;;;;;19.67;13.83;;;15.00;87.10;;;;;;5001443;28;20453;-79
2022/10/14 00:18:47;;;;;;;25.00;14.10;;;15.00;87.10;;;;;;4997723;28;20519;-79
2022/10/14 00:21:16;;;;;;;21.60;14.27;;;15.00;87.10;;;;;;5011533;28;20502;-79
2022/10/14 00:23:44;;;;;;;21.50;13.83;;;15.00;87.10;;;;;;4997399;28;20452;-78
2022/10/14 00:26:17;;;;;;;21.63;14.87;;;14.90;87.10;;;;;;4995365;28;20472;-78
2022/10/14 00:28:45;;;;;;;18.93;14.37;;;14.90;87.20;;;;;;5009459;28;21097;-78
2022/10/14 00:31:14;;;;;;;22.80;14.67;;;15.00;87.20;;;;;;5003441;28;20471;-77
2022/10/14 00:33:45;;;;;;;22.97;14.57;;;15.00;87.20;;;;;;5011674;28;20466;-78
2022/10/14 00:36:16;;;;;;;20.07;13.60;;;15.00;87.20;;;;;;5002794;28;20456;-78
2022/10/14 00:38:45;;;;;;;23.63;14.00;;;15.00;87.20;;;;;;4995604;28;20462;-78
2022/10/14 00:41:16;;;;;;;21.50;14.40;;;15.00;87.10;;;;;;5000700;28;20498;-77
2022/10/14 00:43:59;;;;;;;23.80;14.60;;;15.00;87.10;;;;;;4999930;28;20465;-78
2022/10/14 00:46:29;;;;;;;22.70;13.93;;;15.00;87.10;;;;;;4997898;28;20477;-77
2022/10/14 00:49:08;;;;;;;25.50;15.13;;;15.00;87.10;;;;;;4999048;28;20579;-78
2022/10/14 00:51:38;;;;;;;20.43;13.20;;;15.00;87.10;;;;;;4997641;28;20476;-78
2022/10/14 00:54:07;;;;;;;24.17;13.90;;;15.00;87.20;;;;;;4998068;28;20527;-78
2022/10/14 00:56:36;;;;;;;19.77;13.20;;;15.00;87.10;;;;;;4996504;28;20457;-77
2022/10/14 00:59:10;;;;;;;23.30;14.23;;;15.00;87.10;;;;;;4999882;28;20575;-77
2022/10/14 01:01:38;;;;;;;21.43;13.10;;;15.00;87.00;;;;;;4999708;28;21062;-78
2022/10/14 01:04:08;;;;;;;20.90;13.00;;;15.00;87.00;;;;;;4998309;28;20457;-77
2022/10/14 01:06:43;;;;;;;20.80;14.50;;;15.00;87.00;;;;;;5000528;28;20544;-77
2022/10/14 01:09:23;;;;;;;18.77;13.77;;;15.00;87.10;;;;;;4999455;28;20445;-77
2022/10/14 01:12:02;;;;;;;22.53;13.57;;;15.00;87.10;;;;;;5008663;28;20465;-79
2022/10/14 01:14:58;;;;;;;21.10;13.23;;;15.00;87.00;;;;;;5012715;28;20548;-78
2022/10/14 01:17:39;;;;;;;18.70;13.30;;;15.00;87.00;;;;;;5001484;28;20480;-78
2022/10/14 01:20:41;;;;;;;18.87;12.03;;;15.00;87.10;;;;;;5001574;28;20614;-76
2022/10/14 01:23:36;;;;;;;19.00;13.40;;;15.00;87.00;;;;;;5003594;28;20456;-77
2022/10/14 01:26:33;;;;;;;18.20;12.43;;;15.00;87.10;;;;;;5016341;28;20556;-77
2022/10/14 01:29:17;;;;;;;18.47;12.77;;;15.00;87.00;;;;;;5000159;28;20507;-79
2022/10/14 01:31:59;;;;;;;20.87;11.83;;;15.00;87.00;;;;;;5015228;28;20814;-78
2022/10/14 01:34:34;;;;;;;18.10;11.90;;;15.00;87.00;;;;;;5012859;28;20457;-78
2022/10/14 01:37:09;;;;;;;20.97;15.20;;;15.00;87.00;;;;;;4995568;28;20468;-79
2022/10/14 01:39:45;;;;;;;19.43;13.27;;;15.00;87.00;;;;;;5000636;28;20476;-79
2022/10/14 01:42:17;;;;;;;22.50;12.87;;;15.00;87.00;;;;;;5012130;28;20457;-77
2022/10/14 01:44:51;;;;;;;23.87;14.20;;;15.00;86.90;;;;;;5002651;28;20548;-78
2022/10/14 01:47:21;;;;;;;21.73;14.07;;;15.00;86.90;;;;;;4997641;28;20556;-77
2022/10/14 01:49:55;;;;;;;18.17;13.37;;;15.00;86.90;;;;;;4998295;28;20953;-78
2022/10/14 01:52:28;;;;;;;22.73;13.90;;;15.00;86.90;;;;;;5013413;28;20456;-79
2022/10/14 01:55:01;;;;;;;21.50;14.50;;;15.00;86.90;;;;;;5013544;28;20503;-77
2022/10/14 01:57:33;;;;;;;22.30;14.10;;;15.00;86.90;;;;;;4997714;28;20453;-79
2022/10/14 02:00:02;;;;;;;22.83;14.53;;;15.00;86.90;;;;;;5001693;28;20499;-78
2022/10/14 02:02:42;;;;;;;23.90;14.83;;;15.00;86.90;;;;;;4996618;28;20469;-77
2022/10/14 02:05:17;;;;;;;20.20;14.60;;;15.00;86.90;;;;;;5004199;28;20473;-78
2022/10/14 02:07:50;;;;;;;25.53;15.03;;;15.00;86.80;;;;;;4997910;28;20504;-77
2022/10/14 02:10:32;;;;;;;18.90;12.93;;;15.00;86.80;;;;;;5001596;28;20481;-78
2022/10/14 02:13:11;;;;;;;22.73;14.57;;;15.00;86.80;;;;;;5000439;28;20469;-78
2022/10/14 02:15:49;;;;;;;21.13;14.10;;;15.00;86.90;;;;;;5011230;28;21080;-79
2022/10/14 02:18:25;;;;;;;21.70;13.83;;;15.00;86.90;;;;;;4999594;28;20460;-78
2022/10/14 02:20:57;;;;;;;23.73;13.90;;;15.00;86.90;;;;;;4994592;28;20484;-79
2022/10/14 02:23:31;;;;;;;23.27;13.60;;;15.00;86.90;;;;;;4998497;28;20449;-76
2022/10/14 02:26:01;;;;;;;22.73;14.67;;;15.00;86.90;;;;;;5010127;28;20445;-78
2022/10/14 02:28:31;;;;;;;25.33;13.53;;;15.00;86.90;;;;;;5002527;28;20531;-77
2022/10/14 02:31:04;;;;;;;23.53;14.80;;;15.00;86.90;;;;;;4996508;28;20488;-79
2022/10/14 02:33:39;;;;;;;19.10;13.13;;;15.00;86.90;;;;;;4996588;28;20479;-79
2022/10/14 02:36:10;;;;;;;26.93;13.97;;;15.00;86.90;;;;;;5013430;28;20476;-78
2022/10/14 02:38:39;;;;;;;20.07;14.83;;;14.90;86.90;;;;;;4999679;28;20457;-77
2022/10/14 02:41:13;;;;;;;24.83;15.53;;;14.90;86.90;;;;;;5011170;28;20484;-78
2022/10/14 02:43:41;;;;;;;20.50;14.60;;;15.00;86.90;;;;;;5000210;28;20457;-79
2022/10/14 02:46:09;;;;;;;22.27;13.30;;;15.00;86.90;;;;;;4994518;28;20462;-78
2022/10/14 02:48:40;;;;;;;25.00;15.13;;;15.00;86.90;;;;;;5003075;28;20579;-78
2022/10/14 02:51:08;;;;;;;23.80;16.03;;;15.00;86.90;;;;;;5000120;28;20504;-79
2022/10/14 02:53:38;;;;;;;21.50;14.60;;;14.90;86.90;;;;;;5011177;28;21037;-79
2022/10/14 02:56:07;;;;;;;22.33;14.30;;;14.90;87.00;;;;;;5001739;28;20458;-78
2022/10/14 02:58:35;;;;;;;19.90;14.17;;;15.00;87.00;;;;;;5016240;28;20442;-78
2022/10/14 03:01:04;;;;;;;26.43;15.00;;;15.00;86.90;;;;;;5007764;28;20486;-77
2022/10/14 03:03:33;;;;;;;20.67;15.10;;;15.00;86.90;;;;;;4993719;28;20500;-78
2022/10/14 03:06:04;;;;;;;25.13;15.87;;;15.00;86.90;;;;;;4999999;28;20471;-77
2022/10/14 03:08:33;;;;;;;21.03;14.70;;;15.00;86.90;;;;;;5017262;28;20493;-78
2022/10/14 03:11:03;;;;;;;22.53;15.17;;;15.00;86.90;;;;;;4996257;28;20535;-78
2022/10/14 03:13:32;;;;;;;21.80;15.37;;;15.00;86.80;;;;;;5015142;28;20539;-77
2022/10/14 03:16:00;;;;;;;25.17;16.50;;;14.90;86.80;;;;;;5016861;28;21001;-77
2022/10/14 03:18:28;;;;;;;20.27;14.70;;;14.90;86.90;;;;;;5022312;28;20453;-79
2022/10/14 03:21:04;;;;;;;21.10;15.30;;;14.90;86.80;;;;;;5019446;28;21599;-77
2022/10/14 03:23:37;;;;;;;20.63;14.97;;;14.90;86.80;;;;;;5022140;28;20571;-78
2022/10/14 03:26:05;;;;;;;20.23;14.73;;;14.90;86.90;;;;;;5018912;28;20461;-78
2022/10/14 03:28:41;;;;;;;18.97;14.10;;;14.90;86.90;;;;;;5004736;28;20476;-77
2022/10/14 03:31:23;;;;;;;23.17;15.10;;;14.90;86.90;;;;;;5006902;28;20477;-79
2022/10/14 03:34:12;;;;;;;20.80;14.10;;;14.90;86.90;;;;;;4996199;28;20520;-79
2022/10/14 03:36:42;;;;;;;24.07;14.50;;;14.90;86.90;;;;;;4999176;28;20452;-78
2022/10/14 03:39:11;;;;;;;27.70;14.30;;;14.90;86.80;;;;;;5003890;28;21358;-78
2022/10/14 03:41:50;;;;;;;20.80;14.20;;;14.90;86.80;;;;;;5018369;28;20456;-79
2022/10/14 03:44:22;;;;;;;17.80;12.70;;;14.90;86.80;;;;;;5021102;28;20458;-77
2022/10/14 03:47:12;;;;;;;21.63;13.80;;;14.90;86.80;;;;;;5003764;28;20486;-78
2022/10/14 03:49:40;;;;;;;21.40;13.53;;;14.90;86.80;;;;;;5022674;28;20500;-78
2022/10/14 03:52:17;;;;;;;23.50;13.77;;;14.90;86.80;;;;;;5018192;28;20534;-77
2022/10/14 03:54:50;;;;;;;18.60;12.77;;;14.90;86.90;;;;;;5007369;28;20522;-76
2022/10/14 03:57:18;;;;;;;26.30;14.17;;;14.90;86.90;;;;;;5015494;28;20464;-77
2022/10/14 03:59:51;;;;;;;21.50;14.23;;;14.90;86.80;;;;;;5018690;28;20583;-79
2022/10/14 04:02:20;;;;;;;23.53;15.60;;;14.90;86.70;;;;;;5017724;28;20467;-77
2022/10/14 04:04:54;;;;;;;21.77;13.17;;;14.90;86.70;;;;;;5018895;28;20520;-77
2022/10/14 04:07:29;;;;;;;21.50;14.60;;;14.90;86.70;;;;;;4999820;28;20492;-78
2022/10/14 04:09:58;;;;;;;24.50;15.10;;;14.90;86.70;;;;;;4995972;28;20480;-79
2022/10/14 04:12:26;;;;;;;21.00;15.07;;;14.90;86.70;;;;;;4999536;28;21006;-77
2022/10/14 04:15:00;;;;;;;26.33;14.73;;;14.90;86.70;;;;;;5019113;28;20476;-79
2022/10/14 04:17:34;;;;;;;21.23;13.90;;;14.90;86.70;;;;;;4999797;28;20455;-78
2022/10/14 04:20:10;;;;;;;21.80;13.93;;;14.90;86.70;;;;;;4997134;28;21412;-78
2022/10/14 04:22:39;;;;;;;21.60;14.87;;;14.90;86.60;;;;;;5002290;28;20510;-78
2022/10/14 04:25:08;;;;;;;21.10;13.40;;;14.90;86.70;;;;;;5017740;28;20455;-78
2022/10/14 04:27:36;;;;;;;19.53;14.00;;;14.90;86.60;;;;;;5017128;28;20824;-79
2022/10/14 04:30:09;;;;;;;22.83;14.50;;;14.90;86.60;;;;;;5005636;28;21001;-78
2022/10/14 04:32:46;;;;;;;19.60;13.50;;;14.90;86.60;;;;;;4997833;28;20560;-79
2022/10/14 04:35:14;;;;;;;26.73;14.67;;;14.90;86.60;;;;;;5017252;28;20552;-77
2022/10/14 04:37:47;;;;;;;21.00;13.17;;;14.90;86.50;;;;;;5002401;28;20464;-77
2022/10/14 04:40:24;;;;;;;27.20;13.00;;;14.90;86.50;;;;;;5017432;28;20994;-77
2022/10/14 04:42:57;;;;;;;25.87;13.40;;;14.90;86.50;;;;;;5018741;28;20480;-79
2022/10/14 04:45:33;;;;;;;25.03;14.07;;;14.90;86.50;;;;;;5017255;28;20462;-77
2022/10/14 04:48:03;;;;;;;26.53;14.40;;;14.90;86.50;;;;;;4998911;28;20484;-79
2022/10/14 04:50:36;;;;;;;22.50;12.43;;;14.90;86.50;;;;;;5016108;28;20484;-79
2022/10/14 04:53:28;;;;;;;22.30;13.50;;;14.90;86.50;;;;;;4997863;28;20536;-78
2022/10/14 04:56:09;;;;;;;24.80;14.03;;;14.90;86.50;;;;;;5018384;28;20465;-78
2022/10/14 04:58:48;;;;;;;21.90;13.33;;;14.90;86.50;;;;;;5003568;28;20560;-79
2022/10/14 05:01:17;;;;;;;21.77;14.07;;;14.90;86.50;;;;;;5005738;28;20483;-79
2022/10/14 05:03:47;;;;;;;27.60;14.50;;;14.90;86.50;;;;;;5015686;28;20469;-79
2022/10/14 05:06:16;;;;;;;25.70;15.00;;;14.90;86.50;;;;;;5002554;28;20453;-79
2022/10/14 05:08:46;;;;;;;20.80;14.50;;;14.90;86.50;;;;;;4994126;28;20855;-78
2022/10/14 05:11:15;;;;;;;25.00;14.60;;;14.90;86.40;;;;;;5014479;28;20482;-77
2022/10/14 05:13:49;;;;;;;22.20;14.37;;;14.90;86.40;;;;;;5016813;28;20483;-76
2022/10/14 05:16:17;;;;;;;25.47;15.67;;;14.90;86.60;;;;;;4999775;28;21111;-78
2022/10/14 05:18:45;;;;;;;25.63;17.27;;;14.90;86.60;;;;;;5019215;28;20484;-78
2022/10/14 05:21:14;;;;;;;22.20;15.33;;;14.90;86.60;;;;;;5000601;28;20484;-78
2022/10/14 05:23:56;;;;;;;25.43;15.67;;;14.90;86.50;;;;;;4995767;28;20504;-79
2022/10/14 05:26:26;;;;;;;27.83;16.50;;;14.90;86.50;;;;;;4998336;28;21037;-77
2022/10/14 05:28:56;;;;;;;28.13;16.70;;;14.90;86.50;;;;;;4993787;28;20472;-79
2022/10/14 05:31:24;;;;;;;26.63;16.30;;;14.90;86.50;;;;;;4996920;28;20472;-78
2022/10/14 05:34:11;;;;;;;25.30;16.93;;;14.90;86.50;;;;;;5001219;28;20465;-77
2022/10/14 05:36:40;;;;;;;30.03;18.50;;;14.90;86.40;;;;;;5015888;28;20518;-79
2022/10/14 05:39:10;;;;;;;26.80;17.60;;;14.90;86.50;;;;;;5003944;28;20552;-77
2022/10/14 05:41:39;;;;;;;26.00;17.60;;;14.90;86.50;;;;;;5017788;28;20512;-79
2022/10/14 05:44:07;;;;;;;33.93;18.30;;;14.90;86.50;;;;;;5005062;28;20453;-78
2022/10/14 05:46:35;;;;;;;34.30;19.20;;;14.90;86.50;;;;;;4999340;28;20458;-78
2022/10/14 05:49:05;;;;;;;33.17;18.33;;;14.90;86.50;;;;;;5001227;28;20499;-79
2022/10/14 05:51:36;;;;;;;34.23;17.00;;;14.90;86.50;;;;;;5015597;28;20490;-79
2022/10/14 05:54:13;;;;;;;32.63;19.30;;;14.90;86.50;;;;;;5013832;28;20462;-78
2022/10/14 05:56:43;;;;;;;29.60;19.17;;;14.90;86.50;;;;;;5001098;28;20458;-78
2022/10/14 05:59:11;;;;;;;30.10;19.00;;;14.90;86.50;;;;;;4993513;28;21288;-78
2022/10/14 06:01:39;;;;;;;40.00;19.10;;;14.90;86.50;;;;;;5002612;28;20490;-79
2022/10/14 06:04:07;;;;;;;33.70;19.70;;;14.90;86.50;;;;;;4998677;28;20786;-78
2022/10/14 06:06:36;;;;;;;33.00;17.90;;;14.90;86.50;;;;;;5003468;28;20973;-78
2022/10/14 06:09:03;;;;;;;29.03;18.27;;;14.90;86.50;;;;;;5002843;28;20481;-78
2022/10/14 06:11:39;;;;;;;29.77;18.30;;;14.90;86.60;;;;;;5000852;28;20889;-78
2022/10/14 06:14:07;;;;;;;25.53;18.37;;;14.90;86.50;;;;;;5016681;28;20456;-77
2022/10/14 06:16:35;;;;;;;36.70;18.67;;;15.00;86.60;;;;;;4999750;28;20729;-78
2022/10/14 06:19:06;;;;;;;29.13;17.97;;;15.00;86.50;;;;;;5001878;28;20473;-78
2022/10/14 06:21:34;;;;;;;30.03;18.17;;;15.00;86.50;;;;;;5000074;28;20485;-77
2022/10/14 06:24:01;;;;;;;31.87;18.77;;;15.00;86.50;;;;;;4996256;28;20520;-78
2022/10/14 06:26:29;;;;;;;28.23;16.10;;;15.00;86.50;;;;;;5000269;28;20461;-78
2022/10/14 06:28:59;;;;;;;27.37;17.47;;;15.00;86.50;;;;;;5001126;28;20469;-78
2022/10/14 06:31:27;;;;;;;27.10;16.77;;;15.00;86.50;;;;;;4997426;28;20563;-79
2022/10/14 06:33:59;;;;;;;24.70;15.37;;;15.00;86.60;;;;;;4999424;28;20473;-78
2022/10/14 06:36:27;;;;;;;29.40;16.20;;;15.00;86.60;;;;;;5003012;28;21092;-79
2022/10/14 06:38:55;;;;;;;26.30;15.50;;;15.10;86.60;;;;;;4998296;28;20534;-78
2022/10/14 06:41:24;;;;;;;24.07;14.40;;;15.10;86.60;;;;;;4999260;28;20522;-77
2022/10/14 06:43:51;;;;;;;21.93;14.37;;;15.10;86.50;;;;;;5003841;28;20453;-78
2022/10/14 06:46:21;;;;;;;28.10;15.60;;;15.10;86.50;;;;;;4997982;28;20460;-78
2022/10/14 06:48:49;;;;;;;25.83;16.07;;;15.10;86.50;;;;;;4998494;28;20478;-79
2022/10/14 06:51:17;;;;;;;30.47;17.40;;;15.20;86.40;;;;;;5016432;28;20496;-78
2022/10/14 06:53:45;;;;;;;28.20;16.80;;;15.20;86.40;;;;;;4995358;28;20457;-79
2022/10/14 06:56:13;;;;;;;25.90;15.97;;;15.10;86.30;;;;;;4999490;28;20453;-79
2022/10/14 06:58:41;;;;;;;28.40;17.50;;;15.10;86.40;;;;;;5000523;28;20462;-78
2022/10/14 07:01:09;;;;;;;29.23;16.80;;;15.10;86.40;;;;;;4997777;28;20900;-78
2022/10/14 07:03:38;;;;;;;28.10;17.13;;;15.20;86.50;;;;;;4998335;28;20456;-79
2022/10/14 07:06:08;;;;;;;28.17;16.30;;;15.20;86.50;;;;;;5014262;28;20461;-79
2022/10/14 07:08:36;;;;;;;24.17;14.63;;;15.20;86.50;;;;;;5001493;28;20556;-76
2022/10/14 07:11:05;;;;;;;27.10;15.70;;;15.20;86.50;;;;;;4997437;28;20566;-77
2022/10/14 07:13:34;;;;;;;26.73;16.20;;;15.20;86.50;;;;;;4998417;28;20718;-77
2022/10/14 07:16:02;;;;;;;28.40;17.03;;;15.20;86.50;;;;;;5000396;28;20461;-78
2022/10/14 07:18:30;;;;;;;24.47;16.30;;;15.30;86.50;;;;;;4997374;28;20457;-77
2022/10/14 07:21:03;;;;;;;25.53;15.60;;;15.30;86.50;;;;;;5014924;28;20476;-78
2022/10/14 07:23:31;;;;;;;26.73;15.80;;;15.30;86.50;;;;;;4998744;28;20456;-77
2022/10/14 07:26:00;;;;;;;22.13;14.40;;;15.30;86.50;;;;;;5018270;28;20473;-78
2022/10/14 07:28:28;;;;;;;23.93;15.40;;;15.30;86.50;;;;;;4997470;28;20464;-79
2022/10/14 07:30:58;;;;;;;24.33;14.20;;;15.30;86.50;;;;;;4994345;28;20498;-79
2022/10/14 07:33:26;;;;;;;26.63;15.50;;;15.30;86.60;;;;;;4998123;28;20695;-78
2022/10/14 07:35:54;;;;;;;24.73;15.07;;;15.40;86.60;;;;;;5000615;28;20454;-78
2022/10/14 07:38:23;;;;;;;30.40;15.27;;;15.40;86.60;;;;;;5002675;28;20492;-77
2022/10/14 07:40:59;;;;;;;20.87;13.50;;;15.40;86.60;;;;;;4999311;28;21518;-78
2022/10/14 07:43:28;;;;;;;21.70;14.93;;;15.40;86.60;;;;;;4996281;28;20457;-79
2022/10/14 07:45:59;;;;;;;24.17;14.40;;;15.40;86.70;;;;;;4994604;28;20511;-78
2022/10/14 07:48:30;;;;;;;25.33;14.50;;;15.50;86.70;;;;;;4998491;28;20456;-78
2022/10/14 07:51:06;;;;;;;21.60;13.87;;;15.50;86.60;;;;;;5001850;28;20484;-78
2022/10/14 07:53:36;;;;;;;23.47;13.23;;;15.50;86.60;;;;;;5004061;28;20519;-77
2022/10/14 07:56:05;;;;;;;22.03;14.00;;;15.60;86.40;;;;;;5001780;28;20972;-78
2022/10/14 07:58:32;;;;;;;25.00;14.10;;;15.60;86.40;;;;;;4995929;28;20499;-79
2022/10/14 08:01:00;;;;;;;21.43;13.73;;;15.60;86.30;;;;;;5000158;28;20532;-77
2022/10/14 08:03:28;;;;;;;25.03;13.53;;;15.60;86.30;;;;;;4997946;28;20453;-78
2022/10/14 08:06:00;;;;;;;19.20;11.83;;;15.60;86.20;;;;;;4999976;28;20456;-78
2022/10/14 08:08:29;;;;;;;19.77;12.87;;;15.60;86.30;;;;;;5003631;28;20503;-79
2022/10/14 08:11:02;;;;;;;21.90;12.37;;;15.60;86.30;;;;;;5001355;28;21055;-79
2022/10/14 08:13:31;;;;;;;24.63;12.00;;;15.60;86.30;;;;;;4997307;28;20901;-80
2022/10/14 08:15:59;;;;;;;20.93;11.73;;;15.70;86.20;;;;;;4999193;28;20445;-78
2022/10/14 08:18:27;;;;;;;23.03;13.43;;;15.70;86.30;;;;;;5002398;28;20565;-78
2022/10/14 08:20:55;;;;;;;16.40;10.27;;;15.70;86.40;;;;;;5000828;28;20813;-78
2022/10/14 08:23:25;;;;;;;15.83;10.83;;;15.70;86.40;;;;;;5005866;28;21246;-78
2022/10/14 08:25:53;;;;;;;16.40;10.87;;;15.70;86.30;;;;;;5000120;28;20977;-79
2022/10/14 08:28:22;;;;;;;20.10;10.67;;;15.80;86.30;;;;;;4997824;28;20519;-79
2022/10/14 08:30:51;;;;;;;16.23;10.20;;;15.80;86.30;;;;;;5009182;28;20600;-78
2022/10/14 08:33:19;;;;;;;19.83;10.37;;;15.80;86.20;;;;;;5001533;28;20457;-77
2022/10/14 08:35:47;;;;;;;17.03;10.10;;;15.80;86.20;;;;;;5004357;28;20456;-77
2022/10/14 08:38:24;;;;;;;15.33;8.37;;;15.80;86.10;;;;;;4999420;28;20452;-78
2022/10/14 08:41:02;;;;;;;21.43;9.63;;;15.90;86.10;;;;;;5002386;28;20522;-79
2022/10/14 08:43:36;;;;;;;14.13;9.40;;;15.90;86.10;;;;;;5018846;28;20519;-78
2022/10/14 08:46:11;;;;;;;18.83;9.83;;;15.90;86.10;;;;;;4998541;28;20453;-79
2022/10/14 08:48:39;;;;;;;17.50;9.47;;;15.90;86.10;;;;;;5002844;28;21290;-77
2022/10/14 08:51:11;;;;;;;14.20;10.03;;;15.90;86.00;;;;;;5001965;28;21228;-78
2022/10/14 08:53:44;;;;;;;15.10;9.50;;;15.90;86.00;;;;;;5000610;28;20453;-79
2022/10/14 08:56:14;;;;;;;20.43;9.07;;;15.90;86.00;;;;;;4996083;28;20458;-77
2022/10/14 08:58:49;;;;;;;19.90;8.10;;;15.90;86.00;;;;;;5003678;28;20869;-78
2022/10/14 09:01:22;;;;;;;13.73;8.20;;;15.90;86.00;;;;;;4993932;28;20469;-77
2022/10/14 09:03:53;;;;;;;12.00;7.30;;;15.90;85.90;;;;;;5016464;28;20464;-79
2022/10/14 09:06:25;;;;;;;20.50;9.03;;;15.90;85.90;;;;;;4999048;28;20467;-79
2022/10/14 09:08:58;;;;;;;16.97;7.87;;;15.90;85.90;;;;;;4997877;28;20456;-77
2022/10/14 09:11:28;;;;;;;13.50;8.57;;;15.90;85.90;;;;;;4998983;28;20539;-78
2022/10/14 09:14:05;;;;;;;13.13;8.10;;;15.90;86.00;;;;;;5004704;28;20453;-76
2022/10/14 09:16:37;;;;;;;18.47;8.50;;;15.90;86.00;;;;;;5001676;28;20467;-77
2022/10/14 09:19:11;;;;;;;15.57;7.77;;;16.00;86.00;;;;;;5001972;28;20464;-78
2022/10/14 09:21:46;;;;;;;12.17;6.50;;;16.00;86.00;;;;;;4999305;28;20473;-77
2022/10/14 09:24:21;;;;;;;15.97;8.37;;;16.00;85.90;;;;;;5002546;28;20513;-77
2022/10/14 09:26:53;;;;;;;14.50;7.27;;;16.10;85.90;;;;;;5012526;28;20453;-77
2022/10/14 09:29:25;;;;;;;11.20;7.70;;;16.20;85.90;;;;;;4995825;28;21018;-78
2022/10/14 09:31:57;;;;;;;18.77;7.87;;;16.20;85.90;;;;;;5002202;28;20590;-78
2022/10/14 09:34:31;;;;;;;13.20;7.10;;;16.30;85.80;;;;;;5000388;28;20534;-78
2022/10/14 09:37:10;;;;;;;128.87;14.50;;;16.30;85.70;;;;;;4997318;28;20803;-78
2022/10/14 09:39:40;;;;;;;92.00;11.90;;;16.30;85.70;;;;;;4995355;28;20832;-78
2022/10/14 09:42:15;;;;;;;37.57;9.60;;;16.40;85.70;;;;;;5001252;28;20449;-79
2022/10/14 09:44:44;;;;;;;27.97;8.63;;;16.40;85.70;;;;;;4999064;28;20887;-78
2022/10/14 09:47:17;;;;;;;14.27;6.77;;;16.40;85.70;;;;;;4998670;28;20465;-79
2022/10/14 09:49:48;;;;;;;15.43;6.90;;;16.40;85.70;;;;;;5000171;28;20452;-78
2022/10/14 09:52:22;;;;;;;10.70;6.13;;;16.50;85.50;;;;;;5000735;28;20689;-78
2022/10/14 09:54:55;;;;;;;14.57;7.30;;;16.50;85.50;;;;;;5001885;28;20460;-78
2022/10/14 09:57:24;;;;;;;11.03;7.30;;;16.50;85.40;;;;;;5016373;28;20464;-80
2022/10/14 09:59:59;;;;;;;9.33;6.67;;;16.60;85.40;;;;;;5000139;28;20477;-77
2022/10/14 10:02:39;;;;;;;13.77;7.20;;;16.60;85.30;;;;;;5001267;28;20453;-77
2022/10/14 10:05:22;;;;;;;11.63;7.00;;;16.60;85.30;;;;;;5009966;28;20971;-78
2022/10/14 10:08:01;;;;;;;10.00;5.87;;;16.70;85.20;;;;;;4993231;28;20453;-77
2022/10/14 10:10:30;;;;;;;22.43;6.87;;;16.70;85.20;;;;;;4998054;28;20874;-78
2022/10/14 10:12:58;;;;;;;14.40;6.87;;;16.70;85.20;;;;;;4998439;28;20445;-78
2022/10/14 10:15:28;;;;;;;12.90;6.80;;;16.70;85.20;;;;;;4995680;28;20466;-77
2022/10/14 10:17:56;;;;;;;11.20;5.90;;;16.70;85.20;;;;;;4995670;28;20548;-77
2022/10/14 10:20:32;;;;;;;15.93;7.00;;;16.80;85.10;;;;;;5000323;28;20473;-77
2022/10/14 10:23:24;;;;;;;10.70;5.93;;;16.80;85.10;;;;;;4994218;28;20753;-78
2022/10/14 10:25:52;;;;;;;14.70;6.10;;;16.80;85.00;;;;;;5015438;28;20508;-76
2022/10/14 10:28:30;;;;;;;10.53;7.10;;;16.80;84.90;;;;;;4995649;28;20444;-77
2022/10/14 10:31:15;;;;;;;12.90;5.57;;;16.90;84.70;;;;;;4997715;28;20494;-77
2022/10/14 10:33:50;;;;;;;12.90;7.10;;;16.90;84.70;;;;;;4997546;28;20558;-79
2022/10/14 10:36:22;;;;;;;14.87;7.07;;;16.90;84.70;;;;;;5000156;28;20456;-78
2022/10/14 10:38:58;;;;;;;10.77;6.70;;;16.90;84.70;;;;;;4998477;28;20474;-76
2022/10/14 10:41:42;;;;;;;12.00;6.10;;;16.90;84.50;;;;;;4997496;28;21188;-79
2022/10/14 10:44:27;;;;;;;13.20;5.70;;;16.90;84.50;;;;;;5000091;28;20542;-79
2022/10/14 10:47:12;;;;;;;14.60;6.70;;;16.90;84.50;;;;;;5001626;28;20461;-77
2022/10/14 10:50:07;;;;;;;10.50;6.07;;;17.00;84.50;;;;;;4998879;28;20516;-78
2022/10/14 10:52:48;;;;;;;9.00;5.63;;;17.00;84.50;;;;;;4997283;28;20477;-77
2022/10/14 10:55:25;;;;;;;11.93;6.27;;;17.00;84.50;;;;;;5003751;28;21304;-78
2022/10/14 10:58:03;;;;;;;12.40;6.63;;;17.00;84.30;;;;;;4998452;28;20460;-77
2022/10/14 11:00:45;;;;;;;16.20;5.87;;;17.00;84.30;;;;;;4994124;28;20472;-78
2022/10/14 11:03:38;;;;;;;12.70;5.63;;;17.00;84.20;;;;;;4999619;28;20452;-79
2022/10/14 11:06:10;;;;;;;11.20;5.90;;;17.00;84.20;;;;;;4995538;28;21218;-76
2022/10/14 11:12:02;;;;;;;10.87;6.13;;;17.10;84.10;;;;;;4989400;28;20500;-77
2022/10/14 11:14:55;;;;;;;14.43;6.00;;;17.10;84.10;;;;;;4997594;28;20453;-78
2022/10/14 11:17:35;;;;;;;10.07;6.10;;;17.10;84.20;;;;;;5013647;28;21367;-77
2022/10/14 11:20:22;;;;;;;9.67;5.37;;;17.20;84.10;;;;;;4997034;28;20536;-78
2022/10/14 11:23:03;;;;;;;12.13;5.13;;;17.20;84.00;;;;;;4996031;28;20456;-77
2022/10/14 11:25:43;;;;;;;8.90;5.43;;;17.20;84.00;;;;;;5000573;28;20456;-78
2022/10/14 11:28:18;;;;;;;8.90;4.93;;;17.20;83.80;;;;;;4999228;28;20938;-80
2022/10/14 11:30:50;;;;;;;10.30;4.60;;;17.20;83.80;;;;;;4996204;28;20480;-79
2022/10/14 11:33:37;;;;;;;10.90;5.80;;;17.30;83.80;;;;;;4997676;28;20473;-79
2022/10/14 11:36:22;;;;;;;10.80;5.40;;;17.30;83.70;;;;;;4998210;28;20449;-79
2022/10/14 11:39:14;;;;;;;8.20;4.87;;;17.30;83.60;;;;;;5002063;28;20469;-77
2022/10/14 11:42:03;;;;;;;13.13;5.30;;;17.30;83.50;;;;;;5006655;28;20485;-77
2022/10/14 11:44:35;;;;;;;7.80;4.77;;;17.30;83.40;;;;;;4998223;28;20461;-79
2022/10/14 11:47:09;;;;;;;8.10;4.30;;;17.30;83.40;;;;;;5001598;28;20445;-79
2022/10/14 11:49:44;;;;;;;9.10;4.67;;;17.40;83.20;;;;;;5001203;28;20456;-78
2022/10/14 11:52:19;;;;;;;13.70;4.53;;;17.40;83.00;;;;;;4999311;28;21270;-77
2022/10/14 11:54:52;;;;;;;9.20;4.00;;;17.40;82.90;;;;;;5002867;28;20455;-76
2022/10/14 11:57:28;;;;;;;16.77;5.30;;;17.40;82.90;;;;;;5002907;28;20460;-77
2022/10/14 12:03:12;;;;;;;11.40;4.90;;;17.50;82.60;;;;;;4999859;28;20436;-78
2022/10/14 12:05:45;;;;;;;11.10;4.43;;;17.50;82.40;;;;;;5003078;28;20876;-76
2022/10/14 12:08:24;;;;;;;11.10;4.40;;;17.50;82.20;;;;;;5000405;28;20961;-79
2022/10/14 12:11:00;;;;;;;7.50;3.80;;;17.50;82.10;;;;;;4999551;28;20476;-77
2022/10/14 12:13:34;;;;;;;7.80;3.80;;;17.50;82.20;;;;;;4999843;28;20899;-79
2022/10/14 12:16:04;;;;;;;8.30;4.50;;;17.60;82.00;;;;;;5003905;28;20468;-77
2022/10/14 12:18:34;;;;;;;8.70;4.60;;;17.60;82.00;;;;;;4999095;28;20527;-77
2022/10/14 12:21:18;;;;;;;8.00;4.33;;;17.60;81.80;;;;;;5002157;28;20530;-77
2022/10/14 12:23:50;;;;;;;10.57;4.30;;;17.70;81.70;;;;;;4998308;28;20450;-78
2022/10/14 12:26:39;;;;;;;8.87;3.73;;;17.70;81.60;;;;;;4998085;28;20545;-77
2022/10/14 12:29:11;;;;;;;8.83;4.20;;;17.70;81.50;;;;;;5004350;28;20548;-77
2022/10/14 12:31:40;;;;;;;7.97;3.73;;;17.70;81.50;;;;;;4998552;28;20484;-77
2022/10/14 12:34:33;;;;;;;8.87;3.93;;;17.70;81.40;;;;;;5003228;28;20459;-79
2022/10/14 12:37:41;;;;;;;10.30;4.43;;;17.70;81.30;;;;;;4988252;28;20579;-78
2022/10/14 12:40:30;;;;;;;9.30;3.93;;;17.70;81.30;;;;;;4993575;28;21052;-78
2022/10/14 12:43:25;;;;;;;7.80;3.70;;;17.80;81.30;;;;;;5001479;28;20481;-78
2022/10/14 12:46:03;;;;;;;8.10;3.40;;;17.80;81.20;;;;;;5014818;28;21115;-79
2022/10/14 12:48:34;;;;;;;7.00;3.93;;;17.80;81.10;;;;;;4996873;28;20437;-80
2022/10/14 12:51:12;;;;;;;8.33;4.20;;;17.80;81.00;;;;;;5002239;28;20485;-79
2022/10/14 12:53:48;;;;;;;7.60;3.93;;;17.80;80.90;;;;;;4998238;28;20473;-79
2022/10/14 12:56:30;;;;;;;9.70;3.50;;;17.80;80.70;;;;;;4999511;28;20455;-79
2022/10/14 12:59:01;;;;;;;9.00;4.33;;;17.80;80.70;;;;;;4999633;28;20474;-77
2022/10/14 13:01:31;;;;;;;11.07;3.97;;;17.80;80.60;;;;;;4996810;28;20472;-77
2022/10/14 13:04:07;;;;;;;14.10;4.10;;;17.70;80.60;;;;;;5000534;28;20564;-77
2022/10/14 13:06:39;;;;;;;9.10;4.30;;;17.70;80.50;;;;;;5000148;28;20512;-79
2022/10/14 13:09:39;;;;;;;10.37;4.60;;;17.60;80.50;;;;;;5003449;28;20449;-79